Weather observations for the past three days for
Platteville Municipal Airport
Metric (Imperial)
Date Time (cdt) Wind (kph) Vis. (km) Weather Sky Cond. Temperature (ºC) Relative Humidity Wind Chill (°C) Heat Index (°C) Pressure Precipitation (cm)
Air Dwpt 6 hour altimeter (cm) sea level (mb) 1 hr 3 hr 6 hr
Max. Min.
05 15:35 W 26 G 39 16.09 Partly Cloudy SCT070 14.6 -7.3 21% 75.74 0.0
05 15:10 W 26 G 43 16.09 Fair CLR 14 -7.4 22% 75.74 0.0
05 14:55 W 30 G 37 16.09 Partly Cloudy SCT070 14.1 -7.9 21% 75.74 0.0
05 14:35 W 33 G 41 16.09 Fair and Breezy CLR 14.4 -7 22% 75.77 0.0
05 14:15 W 17 G 35 16.09 Fair CLR 13.3 -7.4 23% 75.79 0.0
05 13:55 W 26 G 43 16.09 Fair CLR 13.5 -7.1 23% 75.79 0.0
05 13:35 W 20 G 31 16.09 Fair CLR 13.5 -6.8 24% 75.77 0.0
05 13:15 W 26 G 37 16.09 Fair CLR 13.8 -6.4 24% 75.79 0.0
05 12:55 W 20 G 37 16.09 Fair CLR 12.7 -6.6 12.7 5.2 26% 75.77 0.0
05 12:35 W 19 G 31 16.09 Fair CLR 12.1 -7 26% 75.77 0.0
05 12:15 NW 26 G 35 16.09 Fair CLR 12.5 -6.8 26% 75.79 0.0
05 11:55 NW 20 G 28 16.09 Fair CLR 12.1 -6.7 26% 75.79 0.0
05 11:35 NW 20 G 28 16.09 Fair CLR 11.6 -7.1 27% 75.79 0.0
05 11:15 NW 19 G 35 16.09 Fair CLR 11.3 -7.4 26% 75.79 0.0
05 10:55 W 19 G 33 16.09 Fair CLR 11.7 -7.7 25% 75.77 0.0
05 10:35 NW 19 G 35 16.09 Fair CLR 10.7 -8.2 26% 75.77 0.0
05 10:15 W 15 G 28 16.09 Fair CLR 10.5 -7.2 28% 75.77 0.0
05 09:55 W 20 G 31 16.09 Fair CLR 10.6 -8 26% 75.77 0.0
05 09:35 NW 19 16.09 Fair CLR 10.2 -7.5 28% 75.74 0.0
05 09:15 W 13 G 26 11.27 Fair CLR 9.3 -6.9 31% 8 75.74 0.0
05 08:55 NW 17 16.09 Fair CLR 9.1 -7 32% 7 75.79 0.0
05 08:35 NW 15 16.09 Fair CLR 8.7 -6.5 34% 7 75.79 0.0
05 08:10 W 17 16.09 Fair CLR 9.2 -5.5 35% 7 75.79 0.0
05 07:55 W 15 16.09 Fair CLR 7.7 -4.5 42% 5 75.79 0.0
05 07:35 W 11 16.09 Fair CLR 7.3 -3.4 47% 5 75.79 0.0
05 07:15 Calm 16.09 Fair CLR 5.5 -2.9 55% 75.77 0.0
05 06:55 Calm 16.09 Fair CLR 5.2 -2.5 10 4.6 58% 75.77 0.0
05 06:35 SW 9 16.09 Fair CLR 5.1 -3.6 54% 3 75.72 0.0
05 06:10 Calm 16.09 Fair CLR 5.5 -4.7 48% 75.64 0.0
05 05:55 Calm 16.09 Fair CLR 5.2 -4.6 50% 75.59 0.0
05 05:35 W 6 16.09 Fair CLR 4.8 -4.6 51% 75.59 0.0
05 05:15 W 11 16.09 Fair CLR 5.5 -4.4 49% 3 75.62 0.0
05 04:55 W 7 16.09 Fair CLR 5.5 -4.3 50% 4 75.62 0.0
05 04:35 Calm 16.09 Fair CLR 6.7 -5.2 43% 75.62 0.0
05 04:15 Calm 16.09 Partly Cloudy SCT120 7.4 -4.9 42% 75.57 0.0
05 03:55 Calm 16.09 Fair CLR 7.6 -5.1 40% 75.57 0.0
05 03:35 Calm 16.09 Fair CLR 8 -5.6 38% 75.57 0.0
05 03:15 NW 13 16.09 Fair CLR 8.2 -6 36% 6 75.57 0.0
05 02:55 NW 17 16.09 Fair CLR 8.3 -5.5 37% 6 75.51 0.0
05 02:35 NW 17 16.09 Fair CLR 9.1 -5.8 35% 7 75.44 0.0
05 02:15 NW 22 G 31 16.09 Fair CLR 9.5 -6 33% 7 75.44 0.0
05 01:55 NW 20 G 43 16.09 Fair CLR 9.8 -6.3 32% 7 75.41 0.0
05 01:35 NW 30 G 37 16.09 Fair CLR 9.8 -5.9 33% 7 75.36 0.0
05 01:15 NW 20 16.09 Fair CLR 9.5 -5.3 35% 7 75.36 0.0
05 00:55 NW 20 G 28 16.09 Fair CLR 9.7 -4.5 19.6 9.7 37% 7 75.36 0.0
05 00:35 NW 20 G 33 16.09 Fair CLR 10.5 -4.8 34% 75.36 0.0
05 00:15 NW 33 G 48 16.09 Fair and Breezy CLR 11.1 -4.7 33% 75.31 0.0
04 23:55 NW 20 G 30 16.09 Fair CLR 11.4 -3.9 34% 75.31 0.0
04 23:35 NW 15 16.09 Fair CLR 11.5 -3.7 35% 75.31 0.0
04 23:15 NW 22 G 28 16.09 Fair CLR 12 -3.6 34% 75.31 0.0
04 22:55 NW 26 G 37 16.09 Partly Cloudy SCT120 13 -4.3 30% 75.31 0.0
04 22:35 NW 22 G 31 16.09 Fair CLR 13.2 -4.4 29% 75.26 0.0
04 22:15 NW 15 16.09 Partly Cloudy SCT120 13 -4.4 30% 75.26 0.0
04 21:55 W 17 G 26 16.09 Partly Cloudy SCT120 13.2 -4.9 28% 75.23 0.0
04 21:35 W 15 16.09 Fair CLR 13.3 -4.6 29% 75.21 0.0
04 21:15 NW 17 16.09 Fair CLR 14 -4.6 27% 75.18 0.0
04 20:55 NW 15 G 28 16.09 Fair CLR 14.5 -4.9 26% 75.13 0.0
04 20:35 NW 20 G 31 16.09 Fair CLR 14.9 -5.2 25% 75.11 0.0
04 20:15 NW 17 16.09 Fair CLR 15.3 -5.5 24% 75.06 0.0
04 19:55 NW 31 G 48 16.09 Fair CLR 16.5 -6.2 21% 75.06 0.0
04 19:35 NW 31 G 46 16.09 Fair CLR 17.4 -5.1 21% 75.01 0.0
04 19:15 NW 31 G 50 16.09 Fair CLR 18.2 -4.7 21% 74.98 0.0
04 18:55 NW 35 G 46 16.09 Fair and Breezy CLR 19.7 -4 27.4 19.7 20% 74.96 0.0
04 18:35 NW 33 G 44 16.09 Fair and Breezy CLR 20.6 -4.4 18% 74.96 0.0
04 18:15 NW 24 G 41 16.09 Fair CLR 21.5 -2.9 19% 74.93 0.0
04 17:55 NW 26 G 44 16.09 Fair CLR 22 -3.4 18% 74.9 0.0
04 17:35 NW 26 G 43 16.09 Fair CLR 23 -2.5 18% 74.9 0.0
04 17:15 NW 35 G 46 16.09 Fair and Breezy CLR 24.3 -1.3 18% 25 74.88 0.0
04 16:55 W 22 G 43 16.09 Fair CLR 25 0.9 21% 25 74.85 0.0
04 16:35 W 28 G 43 16.09 Fair CLR 25.6 2.4 22% 25 74.83 0.0
04 16:15 W 31 G 43 16.09 Fair CLR 25.6 1 20% 25 74.83 0.0
04 15:55 W 37 G 56 16.09 Fair and Breezy CLR 27.1 -0.9 16% 26 74.8 0.0
04 15:35 W 33 G 52 16.09 Fair and Breezy CLR 27.1 -1 16% 26 74.83 0.0
04 15:15 SW 35 G 50 16.09 Fair and Breezy CLR 27 -0.2 17% 26 74.83 0.0
04 14:55 W 41 G 56 16.09 Fair and Breezy CLR 27 -0.6 16% 26 74.88 0.0
04 14:35 W 33 G 56 16.09 Fair and Breezy CLR 26.5 -0.7 17% 26 74.88 0.0
04 14:15 W 33 G 50 16.09 Fair and Breezy CLR 26.5 -0.6 17% 26 74.88 0.0
04 13:55 SW 37 G 52 16.09 Partly Cloudy and Breezy SCT085 26.3 -0.2 18% 26 74.9 0.0
04 13:35 SW 30 G 48 16.09 Partly Cloudy SCT085 25.3 0.8 20% 25 74.9 0.0
04 13:15 W 35 G 46 16.09 Fair and Breezy CLR 25.6 0.5 19% 25 74.93 0.0
04 12:55 SW 35 G 48 16.09 Fair and Breezy CLR 25.3 -0.3 25.3 9.4 19% 25 74.93 0.0
04 12:35 SW 37 G 44 16.09 Fair and Breezy CLR 24.8 0 20% 25 74.93 0.0
04 12:15 SW 41 G 48 16.09 Fair and Breezy CLR 24.1 0.1 21% 25 74.96 0.0
04 11:55 SW 39 G 46 16.09 Fair and Breezy CLR 23.8 0 21% 74.96 0.0
04 11:35 SW 37 G 50 16.09 Fair and Breezy CLR 23.2 -0.1 21% 75.01 0.0
04 11:15 SW 39 G 46 16.09 Fair and Breezy CLR 23 -0.6 21% 75.01 0.0
04 10:55 SW 30 G 44 16.09 Fair CLR 22.4 -0.4 22% 75.01 0.0
04 10:35 SW 33 G 44 16.09 Fair and Breezy CLR 21.8 -0.6 22% 75.03 0.0
04 10:15 SW 28 16.09 Fair CLR 21.4 -0.4 23% 75.06 0.0
04 09:55 SW 28 16.09 Fair CLR 21 -0.2 24% 75.06 0.0
04 09:35 SW 26 G 35 16.09 Fair CLR 20.2 -0.5 25% 75.08 0.0
04 09:15 SW 22 16.09 Fair CLR 19 0 28% 75.11 0.0
04 08:55 SW 20 16.09 Fair CLR 17.6 1 33% 75.13 0.0
04 08:35 SW 17 16.09 Fair CLR 16.4 1.1 36% 75.13 0.0
04 08:15 S 11 16.09 Fair CLR 14.7 2.1 43% 75.13 0.0
04 07:55 S 13 16.09 Fair CLR 13.3 1.3 44% 75.16 0.0
04 07:35 S 11 16.09 Fair CLR 12.1 1.6 49% 75.18 0.0
04 07:15 S 15 16.09 Fair CLR 11 1.6 53% 75.16 0.0
04 06:55 S 13 16.09 Fair CLR 9.2 1.3 12 6.8 58% 7 75.18 0.0
04 06:35 S 15 16.09 Fair CLR 8.1 1 61% 6 75.18 0.0
04 06:15 S 13 16.09 Fair CLR 7.2 0.7 64% 5 75.18 0.0
04 05:55 S 15 16.09 Fair CLR 6.8 0.6 65% 4 75.18 0.0
04 05:35 S 15 16.09 Fair CLR 6.8 0.5 65% 4 75.18 0.0
04 05:15 S 17 16.09 Fair CLR 7 0.7 65% 4 75.21 0.0
04 04:55 S 17 16.09 Fair CLR 7.4 0.5 62% 5 75.21 0.0
04 04:30 S 15 16.09 Fair CLR 8.2 0 57% 6 75.23 0.0
04 04:15 S 15 16.09 Fair CLR 8.6 -0.1 55% 6 75.23 0.0
04 03:55 S 11 16.09 Fair CLR 9 -0.3 52% 8 75.23 0.0
04 03:35 S 9 16.09 Fair CLR 8.9 -0.2 53% 8 75.26 0.0
04 03:15 S 7 16.09 Fair CLR 7.9 0.1 58% 7 75.29 0.0
04 02:55 Calm 16.09 Fair CLR 8.2 0 57% 75.29 0.0
04 02:35 Calm 16.09 Fair CLR 8.3 0 56% 75.31 0.0
04 02:15 Calm 16.09 Fair CLR 11.1 -1.6 42% 75.31 0.0
04 01:55 Calm 16.09 Fair CLR 11.9 -1.6 39% 75.34 0.0
04 01:35 Calm 16.09 Fair CLR 10.9 -0.9 44% 75.36 0.0
04 01:15 Calm 16.09 Fair CLR 10.8 -0.6 46% 75.39 0.0
04 00:55 Calm 16.09 Fair CLR 12 -1 21.5 11.5 41% 75.41 0.0
04 00:35 Calm 16.09 Fair CLR 11.6 -0.6 43% 75.44 0.0
04 00:15 Calm 16.09 Fair CLR 12 -1 41% 75.44 0.0
03 23:55 Calm 16.09 Fair CLR 12.9 -1.7 37% 75.44 0.0
03 23:35 Calm 16.09 Fair CLR 13.2 -1.9 35% 75.44 0.0
03 23:15 Calm 16.09 Fair CLR 13.1 -1.8 36% 75.44 0.0
03 22:55 Calm 16.09 Fair CLR 13.5 -1.9 35% 75.46 0.0
03 22:35 Calm 16.09 Fair CLR 14.3 -1.6 34% 75.46 0.0
03 22:15 Calm 16.09 Fair CLR 13.8 -1.2 36% 75.44 0.0
03 21:55 Calm 16.09 Fair CLR 14.5 -1.5 33% 75.44 0.0
03 21:35 Calm 16.09 Fair CLR 15.4 -2 30% 75.44 0.0
03 21:15 Calm 16.09 Fair CLR 15.9 -2 29% 75.44 0.0
03 20:55 W 7 16.09 Fair CLR 15.8 -1.7 30% 75.41 0.0
03 20:35 W 6 16.09 Fair CLR 17.1 -2.1 27% 75.41 0.0
03 20:15 NW 7 16.09 Fair CLR 17.7 -2 26% 75.41 0.0
03 19:55 W 7 16.09 Fair CLR 17.9 -1.5 27% 75.39 0.0
03 19:35 W 9 16.09 Fair CLR 19.4 -1.7 24% 75.36 0.0
03 19:15 W 13 16.09 Fair CLR 20.7 -2.5 21% 75.36 0.0
03 18:55 W 15 G 30 16.09 Fair CLR 21.5 -2.8 23 18 19% 75.36 0.0
03 18:35 W 19 16.09 Partly Cloudy SCT085 22.1 -1.8 20% 75.34 0.0
03 18:15 W 17 G 30 16.09 Partly Cloudy SCT085 22.7 -0.7 21% 75.34 0.0
03 17:55 NW 19 G 31 16.09 Fair CLR 22.8 -0.3 22% 75.34 0.0
03 17:35 W 11 16.09 Fair CLR 22.7 -0.1 22% 75.34 0.0
03 17:15 W 28 G 35 16.09 Fair CLR 22.7 -1.3 20% 75.36 0.0
03 16:55 W 26 G 35 16.09 Fair CLR 22.8 -0.6 21% 75.36 0.0
03 16:35 W 20 G 31 16.09 Fair CLR 22.4 -0.1 22% 75.36 0.0
03 16:15 W 22 G 31 16.09 Fair CLR 22.5 -0.1 22% 75.36 0.0
03 15:55 W 20 G 39 16.09 Fair CLR 22.4 0.5 23% 75.36 0.0
03 15:35 SW 22 G 33 16.09 Fair CLR 22.1 1 25% 75.39 0.0
03 15:15 SW 24 G 37 16.09 Fair CLR 21.4 0.5 25% 75.44 0.0
03 14:55 W 20 G 39 16.09 Fair CLR 21.1 1.3 27% 75.44 0.0
03 14:35 SW 22 G 30 16.09 Fair CLR 20.5 0.9 27% 75.46 0.0
03 14:15 SW 17 G 35 16.09 Fair CLR 20 1.2 29% 75.49 0.0
03 13:35 SW 28 G 41 16.09 Fair CLR 19 0.6 29% 75.54 0.0
03 13:15 SW 33 16.09 Fair and Breezy CLR 19 1.4 31% 75.54 0.0
03 12:55 SW 33 G 44 16.09 Fair and Breezy CLR 18 1.2 18 8.3 33% 75.57 0.0 0.03
03 12:35 SW 31 G 43 16.09 Fair CLR 17.5 1.2 34% 75.57 0.0
03 12:15 SW 30 G 44 16.09 Fair CLR 16.9 0.8 34% 75.59 0.0
03 11:55 SW 33 G 43 16.09 Fair and Breezy CLR 16.5 0.4 34% 75.62 0.0
03 11:35 SW 35 G 44 16.09 Fair and Breezy CLR 16 1.1 37% 75.64 0.0
03 11:15 SW 37 G 46 16.09 Partly Cloudy and Breezy SCT110 15.6 0.4 36% 75.64 0.0
03 10:55 SW 33 G 48 16.09 Partly Cloudy and Breezy SCT110 15.3 1.4 39% 75.64 0.0
03 10:35 S 33 G 46 16.09 Partly Cloudy and Breezy SCT100 SCT110 14.1 1.6 43% 75.67 0.0
03 10:15 S 44 G 52 16.09 Fair and Windy CLR 14.1 1.2 42% 75.69 0.0
03 09:55 S 30 G 41 16.09 Fair CLR 12.7 4.1 56% 75.69 0.0 0.03
03 09:35 S 26 16.09 Partly Cloudy SCT080 SCT090 11.9 4.6 61% 75.72 0.0
03 09:15 S 22 16.09 Partly Cloudy SCT085 SCT100 11.1 4.5 64% 75.77 0.0
03 08:55 S 24 16.09 Mostly Cloudy SCT065 BKN085 BKN100 9.1 3.1 66% 6 75.74 0.0
03 08:35 S 31 G 43 16.09 Overcast OVC065 8.5 3 69% 5 75.74 0.0
03 08:15 S 31 16.09 Overcast SCT030 BKN060 OVC075 8.4 4.2 75% 5 75.74 0.0
03 07:35 S 28 16.09 Overcast SCT031 BKN070 OVC080 9.1 3.5 68% 6 75.82 0.0
03 07:15 S 19 16.09 Overcast SCT031 BKN060 OVC080 9.8 4 67% 8 75.87 0.0
03 06:55 SW 22 G 31 16.09 Overcast SCT060 SCT070 OVC080 9.7 4 10.1 6.3 68% 7 75.9 0.0
03 06:35 SW 26 G 37 16.09 Overcast SCT032 SCT050 OVC090 9.4 4.7 73% 6 75.87 0.0
03 06:15 SW 22 11.27 Overcast SCT029 SCT037 OVC060 9.3 5.4 77% 7 75.9 0.0
03 05:55 SW 26 G 33 16.09 Overcast BKN060 OVC070 10 3.8 66% 7 75.92 0.0
03 05:35 SW 22 16.09 Partly Cloudy SCT080 9.6 0.6 54% 7 75.9 0.0
03 05:15 SW 19 16.09 Fair CLR 9.3 -0.7 50% 7 75.9 0.0
03 04:55 SW 19 16.09 Fair CLR 9.5 -1.9 45% 7 75.92 0.0
03 04:35 SW 17 16.09 Fair CLR 8.8 -1.9 47% 7 75.95 0.0
03 04:15 S 17 16.09 Fair CLR 8 -1.1 53% 6 75.95 0.0
03 03:55 S 13 16.09 Fair CLR 7.8 -1.6 52% 6 75.95 0.0
03 03:35 S 13 16.09 Fair CLR 8.1 -2 49% 6 75.95 0.0
03 03:15 S 17 16.09 Fair CLR 8.5 -2.1 48% 6 75.95 0.0
03 02:55 S 15 16.09 Partly Cloudy SCT110 8.1 -1.9 50% 6 75.95 0.0
03 02:35 S 15 16.09 Fair CLR 8 -1.7 51% 6 75.97 0.0
03 02:15 S 15 16.09 Fair CLR 7.5 -1.7 52% 5 75.97 0.0
03 01:55 S 15 16.09 Fair CLR 6.6 -1.5 57% 4 76 0.0
03 01:35 S 11 16.09 Fair CLR 6.4 -1.5 57% 4 76.02 0.0
03 01:15 S 11 16.09 Fair CLR 6.5 -1.7 56% 5 76.02 0.0
03 00:50 S 13 16.09 Fair CLR 6.5 -2 14.5 6.5 55% 4 76.05 0.0
03 00:35 S 15 16.09 Fair CLR 6.5 -2.2 54% 4 76.05 0.0
03 00:15 S 13 16.09 Fair CLR 6.5 -2.5 53% 4 76.05 0.0
02 23:55 S 13 16.09 Fair CLR 6.6 -2.6 52% 4 76.05 0.0
02 23:35 S 11 16.09 Fair CLR 7 -2.7 50% 5 76.07 0.0
02 23:15 S 13 16.09 Fair CLR 7.2 -2.7 50% 5 76.07 0.0
02 22:55 S 11 16.09 Fair CLR 7 -3 49% 5 76.1 0.0
02 22:35 S 13 16.09 Fair CLR 7.1 -3 49% 5 76.1 0.0
02 22:15 S 13 16.09 Fair CLR 7.6 -3.2 47% 6 76.12 0.0
02 21:55 S 13 16.09 Fair CLR 8 -3.4 45% 6 76.12 0.0
02 21:35 S 13 16.09 Fair CLR 8.2 -4.1 42% 6 76.12 0.0
02 21:15 SW 13 16.09 Fair CLR 8.9 -5.2 37% 7 76.12 0.0
02 20:55 SW 13 16.09 Fair CLR 9 -5.7 35% 7 76.12 0.0
02 20:35 SW 11 16.09 Fair CLR 9.4 -6 33% 8 76.12 0.0
02 20:15 SW 13 16.09 Fair CLR 10.2 -6.5 31% 76.12 0.0
02 19:55 SW 15 16.09 Fair CLR 11.6 -6.8 27% 76.12 0.0
02 19:35 SW 19 16.09 Fair CLR 13.4 -8.5 21% 76.12 0.0
02 19:15 SW 17 16.09 Fair CLR 14 -8.1 21% 76.12 0.0
02 18:35 W 28 G 33 16.09 Fair CLR 14.8 -8.8 19% 76.17 0.0
02 18:15 SW 22 G 35 16.09 Fair CLR 15.2 -9.4 18% 76.17 0.0
02 17:55 W 28 G 33 16.09 Partly Cloudy SCT085 15.5 -9.3 17% 76.17 0.0
02 17:35 SW 24 G 37 16.09 Fair CLR 15.5 -8.8 18% 76.2 0.0
02 17:15 W 24 G 30 16.09 Fair CLR 15.6 -8.4 18% 76.2 0.0
02 16:55 W 17 G 35 16.09 Partly Cloudy SCT085 15.6 -8.6 18% 76.2 0.0
02 16:35 W 28 G 39 16.09 Partly Cloudy SCT085 15.5 -8.8 18% 76.23 0.0
02 16:15 W 15 G 41 16.09 Partly Cloudy SCT085 14.6 -8.7 19% 76.23 0.0
Date Time (cdt) Wind (kph) Vis. (km) Weather Sky Cond. Air Dwpt Max. Min. Relative Humidity Wind Chill (°C) Heat Index (°C) altimeter (cm) sea level (mb) 1 hr 3 hr 6 hr
6 hour
Temperature (ºC) Pressure Precipitation (cm)